createdAt,value
2019-01-11T00:00:26.259Z,1018.25
2019-01-11T00:01:26.250Z,1018.21
2019-01-11T00:02:26.283Z,1018.23
2019-01-11T00:03:26.229Z,1018.34
2019-01-11T00:04:26.216Z,1018.27
2019-01-11T00:05:26.206Z,1018.29
2019-01-11T00:06:26.212Z,1018.22
2019-01-11T00:07:26.178Z,1018.31
2019-01-11T00:08:26.193Z,1018.17
2019-01-11T00:09:26.160Z,1018.20
2019-01-11T00:10:26.150Z,1018.18
2019-01-11T00:11:26.142Z,1018.16
2019-01-11T00:12:26.138Z,1018.41
2019-01-11T00:13:26.133Z,1018.18
2019-01-11T00:14:26.103Z,1018.15
2019-01-11T00:15:26.101Z,1018.18
2019-01-11T00:16:26.081Z,1018.15
2019-01-11T00:17:26.087Z,1018.20
2019-01-11T00:18:26.098Z,1018.17
2019-01-11T00:19:26.063Z,1018.24
2019-01-11T00:20:26.043Z,1018.08
2019-01-11T00:21:26.029Z,1018.06
2019-01-11T00:22:26.020Z,1018.13
2019-01-11T00:23:26.052Z,1018.21
2019-01-11T00:24:26.006Z,1018.25
2019-01-11T00:25:26.012Z,1018.07
2019-01-11T00:26:25.976Z,1018.08
2019-01-11T00:27:25.968Z,1018.06
2019-01-11T00:28:25.953Z,1018.06
2019-01-11T00:29:25.966Z,1018.08
2019-01-11T00:30:25.954Z,1018.02
2019-01-11T00:31:25.927Z,1018.03
2019-01-11T00:32:25.914Z,1018.05
2019-01-11T00:33:25.898Z,1017.95
2019-01-11T00:34:25.894Z,1017.96
2019-01-11T00:35:25.902Z,1018.05
2019-01-11T00:36:25.864Z,1017.99
2019-01-11T00:37:25.858Z,1018.00
2019-01-11T00:38:25.857Z,1018.00
2019-01-11T00:39:25.847Z,1017.95
2019-01-11T00:40:25.859Z,1017.97
2019-01-11T00:41:25.822Z,1017.93
2019-01-11T00:42:25.814Z,1017.97
2019-01-11T00:43:25.791Z,1018.03
2019-01-11T00:44:25.785Z,1018.03
2019-01-11T00:45:25.808Z,1017.96
2019-01-11T00:46:25.757Z,1018.03
2019-01-11T00:47:25.757Z,1017.95
2019-01-11T00:48:25.739Z,1017.99
2019-01-11T00:49:25.746Z,1017.90
2019-01-11T00:50:25.732Z,1017.92
2019-01-11T00:51:25.735Z,1017.89
2019-01-11T00:52:25.701Z,1017.93
2019-01-11T00:53:25.696Z,1017.83
2019-01-11T00:54:25.679Z,1017.89
2019-01-11T00:55:25.668Z,1017.87
2019-01-11T00:56:25.692Z,1017.92
2019-01-11T00:57:25.665Z,1017.90
2019-01-11T00:58:25.630Z,1017.88
2019-01-11T00:59:25.629Z,1017.87
2019-01-11T01:00:25.607Z,1017.85
2019-01-11T01:01:25.645Z,1017.81
2019-01-11T01:02:25.590Z,1017.74
2019-01-11T01:03:25.594Z,1017.70
2019-01-11T01:04:25.584Z,1017.76
2019-01-11T01:05:25.567Z,1017.67
2019-01-11T01:06:25.542Z,1017.71
2019-01-11T01:07:25.535Z,1017.74
2019-01-11T01:08:30.539Z,1017.71
2019-01-11T01:09:26.514Z,1017.74
2019-01-11T01:10:25.498Z,1017.65
2019-01-11T01:11:25.513Z,1017.61
2019-01-11T01:12:25.485Z,1017.72
2019-01-11T01:13:25.472Z,1017.65
2019-01-11T01:14:25.490Z,1017.60
2019-01-11T01:15:25.445Z,1017.61
2019-01-11T01:16:25.442Z,1017.63
2019-01-11T01:17:25.447Z,1017.60
2019-01-11T01:18:25.418Z,1017.55
2019-01-11T01:19:25.411Z,1017.54
2019-01-11T01:20:25.423Z,1017.49
2019-01-11T01:21:25.380Z,1017.49
2019-01-11T01:22:25.375Z,1017.48
2019-01-11T01:23:25.374Z,1017.48
2019-01-11T01:24:25.353Z,1017.48
2019-01-11T01:25:25.347Z,1017.46
2019-01-11T01:26:25.678Z,1017.41
2019-01-11T01:27:25.320Z,1017.42
2019-01-11T01:28:25.316Z,1017.43
2019-01-11T01:29:25.339Z,1017.46
2019-01-11T01:30:25.291Z,1017.30
2019-01-11T01:31:25.282Z,1017.42
2019-01-11T01:32:25.291Z,1017.30
2019-01-11T01:33:25.270Z,1017.35
2019-01-11T01:34:25.245Z,1017.48
2019-01-11T01:35:25.249Z,1017.30
2019-01-11T01:36:25.224Z,1017.29
2019-01-11T01:37:25.225Z,1017.38
2019-01-11T01:38:25.235Z,1017.33
2019-01-11T01:39:25.206Z,1017.24
2019-01-11T01:40:25.193Z,1017.26
2019-01-11T01:41:25.169Z,1017.22
2019-01-11T01:42:25.156Z,1017.25
2019-01-11T01:43:25.157Z,1017.19
2019-01-11T01:44:25.164Z,1017.22
2019-01-11T01:45:25.121Z,1017.28
2019-01-11T01:46:25.123Z,1017.14
2019-01-11T01:47:25.133Z,1017.13
2019-01-11T01:48:25.088Z,1017.15
2019-01-11T01:49:26.702Z,1017.06
2019-01-11T01:50:25.100Z,1017.02
2019-01-11T01:51:25.068Z,1017.11
2019-01-11T01:52:25.052Z,1017.01
2019-01-11T01:53:25.044Z,1017.07
2019-01-11T01:54:25.034Z,1017.02
2019-01-11T01:55:25.022Z,1017.02
2019-01-11T01:56:25.030Z,1017.03
2019-01-11T01:57:24.992Z,1017.11
2019-01-11T01:58:24.985Z,1017.16
2019-01-11T01:59:24.984Z,1017.01
2019-01-11T02:00:24.965Z,1017.04
2019-01-11T02:01:24.954Z,1017.04
2019-01-11T02:02:24.984Z,1017.05
2019-01-11T02:03:24.938Z,1016.98
2019-01-11T02:04:24.943Z,1017.01
2019-01-11T02:05:24.968Z,1017.04
2019-01-11T02:06:24.932Z,1017.13
2019-01-11T02:07:24.889Z,1016.92
2019-01-11T02:08:24.906Z,1017.04
2019-01-11T02:09:24.871Z,1016.90
2019-01-11T02:10:24.855Z,1017.05
2019-01-11T02:11:24.846Z,1017.06
2019-01-11T02:12:24.866Z,1017.07
2019-01-11T02:13:24.827Z,1017.06
2019-01-11T02:14:24.837Z,1016.95
2019-01-11T02:15:24.806Z,1016.99
2019-01-11T02:16:24.795Z,1016.93
2019-01-11T02:17:24.783Z,1016.87
2019-01-11T02:18:24.780Z,1016.82
2019-01-11T02:19:24.799Z,1016.84
2019-01-11T02:20:24.746Z,1016.88
2019-01-11T02:21:24.744Z,1016.84
2019-01-11T02:22:24.727Z,1016.66
2019-01-11T02:23:24.721Z,1016.82
2019-01-11T02:24:24.721Z,1016.71
2019-01-11T02:25:24.723Z,1016.83
2019-01-11T02:26:24.678Z,1016.96
2019-01-11T02:27:24.684Z,1016.60
2019-01-11T02:28:24.729Z,1016.74
2019-01-11T02:29:24.656Z,1016.78
2019-01-11T02:30:24.637Z,1016.91
2019-01-11T02:31:24.649Z,1016.81
2019-01-11T02:32:24.623Z,1016.78
2019-01-11T02:33:25.136Z,1016.86
2019-01-11T02:34:24.620Z,1016.84
2019-01-11T02:35:24.591Z,1016.77
2019-01-11T02:36:24.604Z,1016.71
2019-01-11T02:37:24.570Z,1016.74
2019-01-11T02:38:24.551Z,1016.71
2019-01-11T02:39:24.547Z,1016.74
2019-01-11T02:40:24.529Z,1016.62
2019-01-11T02:41:24.524Z,1016.69
2019-01-11T02:42:24.542Z,1016.65
2019-01-11T02:43:24.509Z,1016.66
2019-01-11T02:44:24.491Z,1016.58
2019-01-11T02:45:24.483Z,1016.73
2019-01-11T02:46:24.480Z,1016.62
2019-01-11T02:47:24.458Z,1016.64
2019-01-11T02:48:24.474Z,1016.67
2019-01-11T02:49:24.432Z,1016.62
2019-01-11T02:50:24.421Z,1016.65
2019-01-11T02:51:24.415Z,1016.62
2019-01-11T02:52:24.412Z,1016.58
2019-01-11T02:53:24.389Z,1016.64
2019-01-11T02:54:24.409Z,1016.69
2019-01-11T02:55:24.373Z,1016.74
2019-01-11T02:56:24.364Z,1016.72
2019-01-11T02:57:24.355Z,1016.67
2019-01-11T02:58:24.353Z,1016.88
2019-01-11T02:59:24.332Z,1016.68
2019-01-11T03:00:24.330Z,1016.75
2019-01-11T03:01:24.311Z,1016.78
2019-01-11T03:02:24.301Z,1016.73
2019-01-11T03:03:24.286Z,1016.71
2019-01-11T03:04:24.305Z,1016.69
2019-01-11T03:05:25.398Z,1016.71
2019-01-11T03:06:24.253Z,1016.65
2019-01-11T03:07:24.242Z,1016.74
2019-01-11T03:08:24.237Z,1016.74
2019-01-11T03:09:24.223Z,1016.66
2019-01-11T03:10:24.235Z,1016.67
2019-01-11T03:11:24.227Z,1016.62
2019-01-11T03:12:24.194Z,1016.65
2019-01-11T03:13:24.186Z,1016.57
2019-01-11T03:14:24.165Z,1016.61
2019-01-11T03:15:24.180Z,1016.56
2019-01-11T03:16:24.154Z,1016.59
2019-01-11T03:17:24.139Z,1016.75
2019-01-11T03:18:24.130Z,1016.54
2019-01-11T03:19:24.124Z,1016.53
2019-01-11T03:20:24.112Z,1016.54
2019-01-11T03:21:24.124Z,1016.65
2019-01-11T03:22:24.099Z,1016.54
2019-01-11T03:23:24.077Z,1016.49
2019-01-11T03:24:24.069Z,1016.66
2019-01-11T03:25:24.066Z,1016.56
2019-01-11T03:26:24.048Z,1016.46
2019-01-11T03:27:24.052Z,1016.57
2019-01-11T03:28:24.019Z,1016.55
2019-01-11T03:29:24.017Z,1016.44
2019-01-11T03:30:24.006Z,1016.51
2019-01-11T03:31:23.989Z,1016.59
2019-01-11T03:32:23.981Z,1016.46
2019-01-11T03:33:24.003Z,1016.36
2019-01-11T03:34:23.974Z,1016.28
2019-01-11T03:35:23.951Z,1016.37
2019-01-11T03:36:23.936Z,1016.36
2019-01-11T03:37:23.926Z,1016.43
2019-01-11T03:38:23.919Z,1016.38
2019-01-11T03:39:23.929Z,1016.32
2019-01-11T03:40:23.893Z,1016.37
2019-01-11T03:41:23.884Z,1016.34
2019-01-11T03:42:23.868Z,1016.34
2019-01-11T03:43:23.864Z,1016.33
2019-01-11T03:44:23.849Z,1016.27
2019-01-11T03:45:23.866Z,1016.42
2019-01-11T03:46:23.822Z,1016.35
2019-01-11T03:47:23.816Z,1016.20
2019-01-11T03:48:23.827Z,1016.11
2019-01-11T03:49:23.799Z,1016.24
2019-01-11T03:50:23.782Z,1016.22
2019-01-11T03:51:23.806Z,1016.17
2019-01-11T03:52:23.766Z,1016.14
2019-01-11T03:53:23.749Z,1016.10
2019-01-11T03:54:23.743Z,1016.08
2019-01-11T03:55:23.739Z,1016.08
2019-01-11T03:56:23.736Z,1016.15
2019-01-11T03:57:23.711Z,1016.12
2019-01-11T03:58:23.699Z,1016.23
2019-01-11T03:59:23.699Z,1015.95
2019-01-11T04:00:23.679Z,1016.05
2019-01-11T04:01:23.688Z,1015.86
2019-01-11T04:02:23.667Z,1015.91
2019-01-11T04:03:23.645Z,1016.02
2019-01-11T04:04:23.640Z,1015.96
2019-01-11T04:05:23.632Z,1015.81
2019-01-11T04:06:23.651Z,1016.02
2019-01-11T04:07:23.616Z,1015.99
2019-01-11T04:08:23.603Z,1016.00
2019-01-11T04:09:23.601Z,1015.94
2019-01-11T04:10:23.566Z,1016.20
2019-01-11T04:11:23.555Z,1015.96
2019-01-11T04:12:23.575Z,1015.90
2019-01-11T04:13:30.350Z,1016.00
2019-01-11T04:14:24.529Z,1015.83
2019-01-11T04:15:23.530Z,1015.86
2019-01-11T04:16:23.502Z,1015.92
2019-01-11T04:17:23.501Z,1015.78
2019-01-11T04:18:23.515Z,1015.78
2019-01-11T04:19:23.476Z,1015.79
2019-01-11T04:20:23.457Z,1015.83
2019-01-11T04:21:23.458Z,1015.72
2019-01-11T04:22:23.443Z,1015.69
2019-01-11T04:23:23.423Z,1015.72
2019-01-11T04:24:23.431Z,1015.73
2019-01-11T04:25:23.403Z,1015.72
2019-01-11T04:26:23.399Z,1015.69
2019-01-11T04:27:23.382Z,1015.71
2019-01-11T04:28:23.382Z,1015.64
2019-01-11T04:29:23.398Z,1015.67
2019-01-11T04:30:23.370Z,1015.65
2019-01-11T04:31:23.362Z,1015.66
2019-01-11T04:32:23.338Z,1015.58
2019-01-11T04:33:23.319Z,1015.59
2019-01-11T04:34:23.307Z,1015.62
2019-01-11T04:35:23.327Z,1015.61
2019-01-11T04:36:23.298Z,1015.54
2019-01-11T04:37:23.296Z,1015.61
2019-01-11T04:38:23.288Z,1015.66
2019-01-11T04:39:23.261Z,1015.61
2019-01-11T04:40:23.268Z,1015.61
2019-01-11T04:41:23.260Z,1015.55
2019-01-11T04:42:23.233Z,1015.60
2019-01-11T04:43:23.215Z,1015.62
2019-01-11T04:44:23.203Z,1015.50
2019-01-11T04:45:23.205Z,1015.40
2019-01-11T04:46:23.196Z,1015.47
2019-01-11T04:47:23.168Z,1015.40
2019-01-11T04:48:23.168Z,1015.44
2019-01-11T04:49:23.161Z,1015.46
2019-01-11T04:50:23.148Z,1015.43
2019-01-11T04:51:23.164Z,1015.45
2019-01-11T04:52:23.124Z,1015.45
2019-01-11T04:53:23.116Z,1015.49
2019-01-11T04:54:23.139Z,1015.51
2019-01-11T04:55:23.095Z,1015.38
2019-01-11T04:56:23.074Z,1015.43
2019-01-11T04:57:23.081Z,1015.35
2019-01-11T04:58:23.055Z,1015.40
2019-01-11T04:59:23.043Z,1015.40
2019-01-11T05:00:23.037Z,1015.43
2019-01-11T05:01:23.023Z,1015.40
2019-01-11T05:02:23.039Z,1015.44
2019-01-11T05:03:23.019Z,1015.39
2019-01-11T05:04:23.004Z,1015.40
2019-01-11T05:05:22.977Z,1015.37
2019-01-11T05:06:22.982Z,1015.39
2019-01-11T05:07:22.976Z,1015.43
2019-01-11T05:08:22.960Z,1015.39
2019-01-11T05:09:22.967Z,1015.42
2019-01-11T05:10:22.939Z,1015.41
2019-01-11T05:11:22.925Z,1015.38
2019-01-11T05:12:22.933Z,1015.50
2019-01-11T05:13:22.899Z,1015.34
2019-01-11T05:14:22.904Z,1015.37
2019-01-11T05:15:22.890Z,1015.34
2019-01-11T05:16:22.868Z,1015.28
2019-01-11T05:17:22.922Z,1015.30
2019-01-11T05:18:22.846Z,1015.21
2019-01-11T05:19:22.832Z,1015.29
2019-01-11T05:20:22.837Z,1015.34
2019-01-11T05:21:22.837Z,1015.29
2019-01-11T05:22:22.835Z,1015.18
2019-01-11T05:23:22.813Z,1015.32
2019-01-11T05:24:22.781Z,1015.33
2019-01-11T05:25:22.769Z,1015.39
2019-01-11T05:26:22.761Z,1015.25
2019-01-11T05:27:22.760Z,1015.38
2019-01-11T05:28:22.769Z,1015.26
2019-01-11T05:29:22.739Z,1015.28
2019-01-11T05:30:22.724Z,1015.34
2019-01-11T05:31:22.719Z,1015.33
2019-01-11T05:32:22.707Z,1015.29
2019-01-11T05:33:22.749Z,1015.28
2019-01-11T05:34:22.733Z,1015.32
2019-01-11T05:35:22.680Z,1015.32
2019-01-11T05:36:22.665Z,1015.28
2019-01-11T05:37:22.656Z,1015.31
2019-01-11T05:38:22.641Z,1015.33
2019-01-11T05:39:22.638Z,1015.29
2019-01-11T05:40:22.660Z,1015.32
2019-01-11T05:41:22.676Z,1015.30
2019-01-11T05:42:22.623Z,1015.34
2019-01-11T05:43:22.598Z,1015.22
2019-01-11T05:44:22.580Z,1015.24
2019-01-11T05:45:22.591Z,1015.17
2019-01-11T05:46:22.557Z,1015.10
2019-01-11T05:47:22.557Z,1015.12
2019-01-11T05:48:22.538Z,1015.15
2019-01-11T05:49:22.525Z,1015.09
2019-01-11T05:50:24.371Z,1015.06
2019-01-11T05:51:22.525Z,1015.05
2019-01-11T05:52:22.501Z,1014.98
2019-01-11T05:53:22.493Z,1015.02
2019-01-11T05:54:22.472Z,1015.01
2019-01-11T05:55:22.457Z,1014.96
2019-01-11T05:56:22.447Z,1014.98
2019-01-11T05:57:22.454Z,1014.98
2019-01-11T05:58:22.448Z,1014.91
2019-01-11T05:59:22.441Z,1014.92
2019-01-11T06:00:22.406Z,1014.80
2019-01-11T06:01:22.400Z,1014.86
2019-01-11T06:02:22.410Z,1014.85
2019-01-11T06:03:22.387Z,1014.87
2019-01-11T06:04:22.370Z,1014.85
2019-01-11T06:05:22.358Z,1014.82
2019-01-11T06:06:22.340Z,1014.84
2019-01-11T06:07:22.341Z,1014.93
2019-01-11T06:08:22.350Z,1014.83
2019-01-11T06:09:22.308Z,1014.73
2019-01-11T06:10:22.299Z,1014.72
2019-01-11T06:11:22.301Z,1014.68
2019-01-11T06:12:22.288Z,1014.77
2019-01-11T06:13:22.281Z,1014.74
2019-01-11T06:14:22.282Z,1014.69
2019-01-11T06:15:22.258Z,1014.69
2019-01-11T06:16:22.243Z,1014.62
2019-01-11T06:17:22.237Z,1014.64
2019-01-11T06:18:22.265Z,1014.72
2019-01-11T06:19:22.213Z,1014.65
2019-01-11T06:20:22.218Z,1014.67
2019-01-11T06:21:22.188Z,1014.65
2019-01-11T06:22:22.175Z,1014.62
2019-01-11T06:23:22.167Z,1014.59
2019-01-11T06:24:22.164Z,1014.51
2019-01-11T06:25:22.153Z,1014.52
2019-01-11T06:26:22.164Z,1014.56
2019-01-11T06:27:22.134Z,1014.59
2019-01-11T06:28:22.110Z,1014.44
2019-01-11T06:29:22.105Z,1014.45
2019-01-11T06:30:22.132Z,1014.44
2019-01-11T06:31:22.079Z,1014.37
2019-01-11T06:32:22.068Z,1014.46
2019-01-11T06:33:22.064Z,1014.34
2019-01-11T06:34:22.058Z,1014.41
2019-01-11T06:35:22.043Z,1014.31
2019-01-11T06:36:22.071Z,1014.54
2019-01-11T06:37:22.023Z,1014.33
2019-01-11T06:38:22.011Z,1014.29
2019-01-11T06:39:22.007Z,1014.30
2019-01-11T06:40:21.997Z,1014.36
2019-01-11T06:41:21.979Z,1014.29
2019-01-11T06:42:21.993Z,1014.27
2019-01-11T06:43:21.957Z,1014.26
2019-01-11T06:44:22.064Z,1014.27
2019-01-11T06:45:21.954Z,1014.25
2019-01-11T06:46:21.923Z,1014.26
2019-01-11T06:47:21.953Z,1014.20
2019-01-11T06:48:21.932Z,1014.27
2019-01-11T06:49:21.888Z,1014.30
2019-01-11T06:50:21.885Z,1014.22
2019-01-11T06:51:21.886Z,1014.17
2019-01-11T06:52:21.880Z,1014.19
2019-01-11T06:53:21.865Z,1014.25
2019-01-11T06:54:21.877Z,1014.28
2019-01-11T06:55:21.832Z,1014.22
2019-01-11T06:56:21.837Z,1014.23
2019-01-11T06:57:21.814Z,1014.22
2019-01-11T06:58:21.805Z,1014.20
2019-01-11T06:59:21.827Z,1014.21
2019-01-11T07:00:21.780Z,1014.28
2019-01-11T07:01:21.764Z,1014.27
2019-01-11T07:02:22.410Z,1014.35
2019-01-11T07:03:21.867Z,1014.33
2019-01-11T07:04:21.732Z,1014.32
2019-01-11T07:05:21.755Z,1014.31
2019-01-11T07:06:21.750Z,1014.30
2019-01-11T07:07:21.701Z,1014.32
2019-01-11T07:08:21.708Z,1014.25
2019-01-11T07:09:21.776Z,1014.37
2019-01-11T07:10:21.701Z,1014.33
2019-01-11T07:11:21.670Z,1014.28
2019-01-11T07:12:21.658Z,1014.32
2019-01-11T07:13:21.636Z,1014.26
2019-01-11T07:14:21.632Z,1014.25
2019-01-11T07:15:21.630Z,1014.22
2019-01-11T07:16:21.665Z,1014.21
2019-01-11T07:17:21.603Z,1014.20
2019-01-11T07:18:21.638Z,1014.22
2019-01-11T07:19:21.576Z,1014.21
2019-01-11T07:20:21.577Z,1014.30
2019-01-11T07:21:21.571Z,1014.14
2019-01-11T07:22:21.578Z,1014.12
2019-01-11T07:23:21.535Z,1014.18
2019-01-11T07:24:21.527Z,1014.22
2019-01-11T07:25:21.519Z,1014.16
2019-01-11T07:26:21.507Z,1014.20
2019-01-11T07:27:21.514Z,1014.20
2019-01-11T07:28:21.612Z,1014.20
2019-01-11T07:29:21.488Z,1014.18
2019-01-11T07:30:21.465Z,1014.14
2019-01-11T07:31:21.465Z,1014.18
2019-01-11T07:32:21.440Z,1014.24
2019-01-11T07:33:21.455Z,1014.12
2019-01-11T07:34:21.418Z,1014.14
2019-01-11T07:35:21.412Z,1014.18
2019-01-11T07:36:21.419Z,1014.12
2019-01-11T07:37:21.389Z,1014.09
2019-01-11T07:38:21.411Z,1014.19
2019-01-11T07:39:21.389Z,1014.15
2019-01-11T07:40:21.363Z,1014.12
2019-01-11T07:41:21.358Z,1014.02
2019-01-11T07:42:21.342Z,1014.16
2019-01-11T07:43:21.331Z,1014.12
2019-01-11T07:44:21.357Z,1014.07
2019-01-11T07:45:21.303Z,1014.09
2019-01-11T07:46:21.296Z,1014.08
2019-01-11T07:47:21.283Z,1014.10
2019-01-11T07:48:21.283Z,1014.14
2019-01-11T07:49:23.301Z,1014.03
2019-01-11T07:50:21.272Z,1014.11
2019-01-11T07:51:21.244Z,1014.04
2019-01-11T07:52:21.233Z,1013.98
2019-01-11T07:53:21.229Z,1014.05
2019-01-11T07:54:21.261Z,1014.06
2019-01-11T07:55:21.212Z,1014.02
2019-01-11T07:56:21.196Z,1014.02
2019-01-11T07:57:21.187Z,1014.00
2019-01-11T07:58:21.181Z,1014.04
2019-01-11T07:59:21.177Z,1013.98
2019-01-11T08:00:21.185Z,1014.03
2019-01-11T08:01:21.177Z,1014.05
2019-01-11T08:02:21.140Z,1014.02
2019-01-11T08:03:21.126Z,1013.91
2019-01-11T08:04:21.126Z,1013.97
2019-01-11T08:05:21.113Z,1013.99
2019-01-11T08:06:21.132Z,1014.00
2019-01-11T08:07:21.085Z,1013.95
2019-01-11T08:08:21.087Z,1014.00
2019-01-11T08:09:21.072Z,1013.91
2019-01-11T08:10:21.057Z,1013.85
2019-01-11T08:11:21.039Z,1013.85
2019-01-11T08:12:21.066Z,1013.88
2019-01-11T08:13:21.024Z,1013.88
2019-01-11T08:14:21.059Z,1013.86
2019-01-11T08:15:21.001Z,1013.89
2019-01-11T08:16:20.994Z,1013.93
2019-01-11T08:17:20.984Z,1013.87
2019-01-11T08:18:20.982Z,1013.83
2019-01-11T08:19:20.959Z,1013.75
2019-01-11T08:20:20.966Z,1013.82
2019-01-11T08:21:20.948Z,1013.93
2019-01-11T08:22:20.929Z,1013.77
2019-01-11T08:23:20.946Z,1013.76
2019-01-11T08:24:20.912Z,1013.71
2019-01-11T08:25:20.901Z,1013.81
2019-01-11T08:26:20.898Z,1013.71
2019-01-11T08:27:20.879Z,1013.77
2019-01-11T08:28:20.866Z,1013.81
2019-01-11T08:29:20.948Z,1013.77
2019-01-11T08:30:20.939Z,1013.78
2019-01-11T08:31:22.111Z,1013.78
2019-01-11T08:32:20.829Z,1013.75
2019-01-11T08:33:20.822Z,1013.92
2019-01-11T08:34:20.810Z,1013.77
2019-01-11T08:35:20.818Z,1013.80
2019-01-11T08:36:20.790Z,1013.74
2019-01-11T08:37:20.780Z,1013.79
2019-01-11T08:38:20.771Z,1013.84
2019-01-11T08:39:20.749Z,1013.70
2019-01-11T08:40:20.755Z,1013.72
2019-01-11T08:41:20.729Z,1013.78
2019-01-11T08:42:20.719Z,1013.85
2019-01-11T08:43:20.713Z,1013.69
2019-01-11T08:44:20.707Z,1013.78
2019-01-11T08:45:20.734Z,1013.74
2019-01-11T08:46:20.680Z,1013.75
2019-01-11T08:47:20.671Z,1013.81
2019-01-11T08:48:20.660Z,1013.82
2019-01-11T08:49:20.657Z,1013.73
2019-01-11T08:50:20.642Z,1013.72
2019-01-11T08:51:20.646Z,1013.74
2019-01-11T08:52:20.617Z,1013.70
2019-01-11T08:53:20.637Z,1013.73
2019-01-11T08:54:20.598Z,1013.86
2019-01-11T08:55:20.587Z,1013.78
2019-01-11T08:56:20.600Z,1013.78
2019-01-11T08:57:20.557Z,1013.73
2019-01-11T08:58:20.556Z,1013.86
2019-01-11T08:59:20.535Z,1013.66
2019-01-11T09:00:20.529Z,1013.67
2019-01-11T09:01:20.538Z,1013.70
2019-01-11T09:02:20.558Z,1013.91
2019-01-11T09:03:20.501Z,1013.71
2019-01-11T09:04:20.490Z,1013.72
2019-01-11T09:05:20.499Z,1013.77
2019-01-11T09:06:20.475Z,1013.68
2019-01-11T09:07:20.452Z,1013.84
2019-01-11T09:08:20.446Z,1013.66
2019-01-11T09:09:20.441Z,1013.70
2019-01-11T09:10:22.977Z,1013.76
2019-01-11T09:11:20.438Z,1013.73
2019-01-11T09:12:20.398Z,1013.72
2019-01-11T09:13:20.392Z,1013.65
2019-01-11T09:14:20.392Z,1013.71
2019-01-11T09:15:20.375Z,1013.71
2019-01-11T09:16:20.713Z,1013.65
2019-01-11T09:17:20.345Z,1013.64
2019-01-11T09:18:20.343Z,1013.76
2019-01-11T09:19:20.325Z,1013.62
2019-01-11T09:20:20.355Z,1013.78
2019-01-11T09:21:20.320Z,1013.69
2019-01-11T09:22:20.344Z,1013.72
2019-01-11T09:23:20.290Z,1013.77
2019-01-11T09:24:20.312Z,1013.71
2019-01-11T09:25:20.277Z,1013.80
2019-01-11T09:26:20.268Z,1013.72
2019-01-11T09:27:20.239Z,1013.65
2019-01-11T09:28:20.254Z,1013.62
2019-01-11T09:29:20.225Z,1013.68
2019-01-11T09:30:20.226Z,1013.66
2019-01-11T09:31:20.198Z,1013.62
2019-01-11T09:32:20.191Z,1013.69
2019-01-11T09:33:20.876Z,1013.67
2019-01-11T09:34:20.184Z,1013.59
2019-01-11T09:35:20.196Z,1013.64
2019-01-11T09:36:20.157Z,1013.63
2019-01-11T09:37:20.151Z,1013.67
2019-01-11T09:38:20.163Z,1013.60
2019-01-11T09:39:20.158Z,1013.49
2019-01-11T09:40:20.101Z,1013.58
2019-01-11T09:41:20.094Z,1013.57
2019-01-11T09:42:20.085Z,1013.49
2019-01-11T09:43:20.094Z,1013.54
2019-01-11T09:44:20.070Z,1013.54
2019-01-11T09:45:20.083Z,1013.62
2019-01-11T09:46:20.129Z,1013.62
2019-01-11T09:47:20.035Z,1013.55
2019-01-11T09:48:20.043Z,1013.59
2019-01-11T09:49:20.013Z,1013.50
2019-01-11T09:50:20.026Z,1013.52
2019-01-11T09:51:19.987Z,1013.51
2019-01-11T09:52:19.984Z,1013.45
2019-01-11T09:53:19.977Z,1013.67
2019-01-11T09:54:19.966Z,1013.43
2019-01-11T09:55:19.952Z,1013.57
2019-01-11T09:56:19.951Z,1013.52
2019-01-11T09:57:19.925Z,1013.97
2019-01-11T09:58:19.914Z,1013.50
2019-01-11T09:59:19.907Z,1013.45
2019-01-11T10:00:19.901Z,1013.46
2019-01-11T10:01:19.919Z,1013.50
2019-01-11T10:02:19.879Z,1013.42
2019-01-11T10:03:19.865Z,1013.41
2019-01-11T10:04:19.859Z,1013.56
2019-01-11T10:05:19.843Z,1013.54
2019-01-11T10:06:19.835Z,1013.52
2019-01-11T10:07:19.853Z,1013.45
2019-01-11T10:08:19.814Z,1013.54
2019-01-11T10:09:19.817Z,1013.45
2019-01-11T10:10:19.788Z,1013.69
2019-01-11T10:11:19.785Z,1013.50
2019-01-11T10:12:19.793Z,1013.60
2019-01-11T10:13:19.760Z,1013.48
2019-01-11T10:14:19.749Z,1013.48
2019-01-11T10:15:19.828Z,1013.39
2019-01-11T10:16:19.732Z,1013.40
2019-01-11T10:17:19.729Z,1013.48
2019-01-11T10:18:19.729Z,1013.44
2019-01-11T10:19:19.693Z,1013.46
2019-01-11T10:20:19.687Z,1013.43
2019-01-11T10:21:22.503Z,1013.47
2019-01-11T10:22:19.670Z,1013.48
2019-01-11T10:23:19.655Z,1013.34
2019-01-11T10:24:19.672Z,1013.31
2019-01-11T10:25:19.635Z,1013.31
2019-01-11T10:26:19.613Z,1013.50
2019-01-11T10:27:19.619Z,1013.33
2019-01-11T10:28:19.605Z,1013.39
2019-01-11T10:29:19.595Z,1013.17
2019-01-11T10:30:19.618Z,1013.19
2019-01-11T10:31:19.571Z,1013.16
2019-01-11T10:32:19.606Z,1013.18
2019-01-11T10:33:19.548Z,1013.14
2019-01-11T10:34:19.532Z,1013.05
2019-01-11T10:35:19.529Z,1013.10
2019-01-11T10:36:19.552Z,1013.17
2019-01-11T10:37:19.499Z,1013.06
2019-01-11T10:38:19.487Z,1013.18
2019-01-11T10:39:19.479Z,1013.20
2019-01-11T10:40:19.525Z,1013.18
2019-01-11T10:41:19.457Z,1013.19
2019-01-11T10:42:19.468Z,1013.13
2019-01-11T10:43:19.439Z,1013.15
2019-01-11T10:44:19.430Z,1013.10
2019-01-11T10:45:19.412Z,1013.30
2019-01-11T10:46:19.404Z,1013.13
2019-01-11T10:47:19.415Z,1013.18
2019-01-11T10:48:19.389Z,1013.12
2019-01-11T10:49:19.388Z,1013.10
2019-01-11T10:50:19.364Z,1013.18
2019-01-11T10:51:19.366Z,1013.24
2019-01-11T10:52:19.390Z,1013.11
2019-01-11T10:53:19.331Z,1013.09
2019-01-11T10:54:19.324Z,1013.02
2019-01-11T10:55:19.309Z,1013.02
2019-01-11T10:56:19.303Z,1013.07
2019-01-11T10:57:19.298Z,1013.16
2019-01-11T10:58:19.288Z,1013.11
2019-01-11T10:59:19.264Z,1013.13
2019-01-11T11:00:19.255Z,1013.08
2019-01-11T11:01:19.237Z,1013.03
2019-01-11T11:02:19.250Z,1012.98
2019-01-11T11:03:19.231Z,1013.19
2019-01-11T11:04:19.216Z,1013.19
2019-01-11T11:05:19.197Z,1013.17
2019-01-11T11:06:19.187Z,1013.09
2019-01-11T11:07:19.188Z,1013.19
2019-01-11T11:08:19.169Z,1013.19
2019-01-11T11:09:19.153Z,1012.91
2019-01-11T11:10:19.154Z,1013.08
2019-01-11T11:11:19.138Z,1013.20
2019-01-11T11:12:19.143Z,1013.03
2019-01-11T11:13:19.115Z,1012.95
2019-01-11T11:14:19.111Z,1012.96
2019-01-11T11:15:19.089Z,1013.17
2019-01-11T11:16:19.159Z,1013.12
2019-01-11T11:17:19.092Z,1013.03
2019-01-11T11:18:19.054Z,1013.05
2019-01-11T11:19:19.054Z,1012.84
2019-01-11T11:20:19.037Z,1012.96
2019-01-11T11:21:19.031Z,1013.11
2019-01-11T11:22:19.040Z,1013.05
2019-01-11T11:23:19.009Z,1012.84
2019-01-11T11:24:18.997Z,1012.96
2019-01-11T11:25:18.989Z,1012.92
2019-01-11T11:26:18.969Z,1012.89
2019-01-11T11:27:18.964Z,1012.92
2019-01-11T11:28:19.003Z,1012.81
2019-01-11T11:29:18.942Z,1012.90
2019-01-11T11:30:18.929Z,1012.81
2019-01-11T11:31:18.924Z,1012.75
2019-01-11T11:32:18.913Z,1012.81
2019-01-11T11:33:18.903Z,1012.75
2019-01-11T11:34:18.917Z,1012.82
2019-01-11T11:35:18.871Z,1012.89
2019-01-11T11:36:18.862Z,1013.09
2019-01-11T11:37:18.862Z,1012.69
2019-01-11T11:38:18.844Z,1012.80
2019-01-11T11:39:18.855Z,1012.66
2019-01-11T11:40:18.842Z,1012.66
2019-01-11T11:41:18.831Z,1012.79
2019-01-11T11:42:18.820Z,1012.61
2019-01-11T11:43:18.784Z,1012.60
2019-01-11T11:44:18.780Z,1012.61
2019-01-11T11:45:18.784Z,1012.56
2019-01-11T11:46:18.823Z,1012.51
2019-01-11T11:47:18.775Z,1012.51
2019-01-11T11:48:18.731Z,1012.48
2019-01-11T11:49:18.720Z,1012.41
2019-01-11T11:50:18.713Z,1012.43
2019-01-11T11:51:18.712Z,1012.34
2019-01-11T11:52:18.725Z,1012.32
2019-01-11T11:53:18.680Z,1012.17
2019-01-11T11:54:18.673Z,1012.55
2019-01-11T11:55:18.657Z,1012.34
2019-01-11T11:56:18.649Z,1012.34
2019-01-11T11:57:18.637Z,1012.41
2019-01-11T11:58:18.638Z,1012.49
2019-01-11T11:59:18.629Z,1012.35
2019-01-11T12:00:18.610Z,1012.56
2019-01-11T12:01:18.600Z,1012.25
2019-01-11T12:02:19.430Z,1012.27
2019-01-11T12:03:18.591Z,1012.33
2019-01-11T12:04:18.556Z,1012.35
2019-01-11T12:05:18.548Z,1012.30